MM48 weather

Ciudad Pemex Airport
Tabasco, Mexico

Public forecast

Using degrees Celsius for public forecast. Weather courtesy of forecast.io.

METAR (pilot weather report)

Closest report is Carlos Rovirosa Pérez International Airport, 20.7 nm (38.4 km) WNW. Retrieved 2019/06/24 16:41 UTC (5 minutes ago):

MMVA 241641Z 05009KT 7SM BKN210 32/24 A2989 RMK 8/001 ISOL CU HZY

TAF (pilot weather forecast)

Forecast is more than 6 hours old.

Closest forecast is Carlos Rovirosa Pérez International Airport, 20.7 nm (38.4 km) WNW. Retrieved 2019/06/24 06:27 UTC (10 hours ago):

TAF MMVA 240511Z 2406/2506 06005KT 5SM HZ SCT015 SCT250 FM241800 08012KT P6SM SCT020 FM250200 06008KT P6SM SCT015